Time;durP1;ratioP1;P1;durP2;ratioP2;P2;SDS_P1;SDS_P2;PMS_P1;PMS_P2;Temp;Humidity;BMP_temperature;BMP_pressure;BME280_temperature;BME280_humidity;BME280_pressure;Samples;Min_cycle;Max_cycle;Signal;HPM_P1;HPM_P2
2022/01/18 00:01:52;;;;;;;;;6.00;4.80;;;;;6.80;89.01;101848.97;5126444;27;8860;-62
2022/01/18 00:04:20;;;;;;;;;4.00;4.00;;;;;6.82;88.92;101854.22;5128445;27;8883;-63
2022/01/18 00:06:50;;;;;;;;;1.00;1.00;;;;;6.82;88.82;101849.78;5127159;27;9020;-65
2022/01/18 00:09:20;;;;;;;;;6.60;4.00;;;;;6.84;88.67;101855.03;5108431;28;8873;-64
2022/01/18 00:11:55;;;;;;;;;3.60;3.60;;;;;6.82;89.08;101856.88;5107058;28;10071;-64
2022/01/18 00:14:26;;;;;;;;;9.40;6.80;;;;;6.83;88.94;101855.97;5105598;28;8953;-62
2022/01/18 00:17:15;;;;;;;;;3.60;3.20;;;;;6.83;89.03;101855.97;5107393;28;8891;-65
2022/01/18 00:19:51;;;;;;;;;3.60;1.00;;;;;6.83;88.96;101862.09;5106520;28;8843;-63
2022/01/18 00:22:19;;;;;;;;;3.60;3.00;;;;;6.83;88.85;101869.19;5105880;28;8874;-63
2022/01/18 00:24:47;;;;;;;;;3.60;3.60;;;;;6.84;89.25;101876.22;5107516;28;9484;-64
2022/01/18 00:27:17;;;;;;;;;1.00;1.00;;;;;6.82;89.04;101870.97;5111165;27;8856;-64
2022/01/18 00:29:52;;;;;;;;;3.00;3.00;;;;;6.83;89.17;101874.50;5131637;27;8853;-63
2022/01/18 00:32:30;;;;;;;;;2.75;2.75;;;;;6.84;88.83;101870.91;5131441;27;8837;-64
2022/01/18 00:34:58;;;;;;;;;3.00;2.00;;;;;6.82;88.98;101876.25;5132551;27;8845;-62
2022/01/18 00:37:35;;;;;;;;;3.00;3.00;;;;;6.83;89.10;101880.63;5127813;27;8859;-64
2022/01/18 00:40:03;;;;;;;;;2.60;2.60;;;;;6.83;88.83;101887.72;5111923;28;8855;-65
2022/01/18 00:42:30;;;;;;;;;4.40;4.00;;;;;6.82;88.96;101886.00;5111041;28;8843;-62
2022/01/18 00:44:58;;;;;;;;;3.20;2.60;;;;;6.81;89.09;101890.41;5110105;28;8847;-65
2022/01/18 00:47:26;;;;;;;;;1.80;1.00;;;;;6.81;88.91;101897.50;5113702;27;9497;-65
2022/01/18 00:50:00;;;;;;;;;4.00;3.80;;;;;6.81;88.94;101902.81;5129437;27;8921;-66
2022/01/18 00:52:28;;;;;;;;;0.25;0.25;;;;;6.80;88.54;101890.47;5131041;27;8848;-65
2022/01/18 00:54:59;;;;;;;;;3.00;2.60;;;;;6.79;89.13;101888.72;5131746;27;8850;-67
2022/01/18 00:57:26;;;;;;;;;1.80;1.80;;;;;6.78;89.12;101889.66;5128047;27;8949;-63
2022/01/18 00:59:54;;;;;;;;;3.40;3.00;;;;;6.78;89.43;101892.31;5110588;28;8840;-63
2022/01/18 01:02:22;;;;;;;;;1.00;1.00;;;;;6.79;88.63;101891.38;5109060;28;8847;-63
2022/01/18 01:04:50;;;;;;;;;1.00;1.00;;;;;6.79;88.95;101884.31;5108608;28;8848;-64
2022/01/18 01:07:17;;;;;;;;;3.00;1.00;;;;;6.79;89.39;101894.03;5111665;27;8958;-64
2022/01/18 01:09:45;;;;;;;;;0.00;0.00;;;;;6.79;88.92;101904.63;5129420;27;8949;-65
2022/01/18 01:12:14;;;;;;;;;2.60;2.60;;;;;6.79;89.07;101894.03;5132022;27;8833;-64
2022/01/18 01:14:43;;;;;;;;;5.20;4.00;;;;;6.80;88.94;101895.75;5130623;27;8842;-65
2022/01/18 01:17:23;;;;;;;;;3.00;2.60;;;;;6.80;89.13;101903.69;5130521;27;8835;-64
2022/01/18 01:42:02;;;;;;;;;2.40;1.80;;;;;6.77;88.93;101915.28;5130987;27;8926;-62
2022/01/18 01:44:41;;;;;;;;;1.40;1.00;;;;;6.76;89.03;101921.47;5131622;27;8845;-63
2022/01/18 01:47:10;;;;;;;;;0.00;0.00;;;;;6.76;89.10;101915.31;5131269;27;8849;-63
2022/01/18 01:49:38;;;;;;;;;3.20;3.00;;;;;6.75;89.17;101909.16;5110617;27;8974;-62
2022/01/18 01:52:05;;;;;;;;;1.00;1.00;;;;;6.74;88.90;101910.06;5109814;28;8890;-62
2022/01/18 01:54:33;;;;;;;;;1.00;1.00;;;;;6.74;89.02;101911.88;5111958;28;8977;-63
2022/01/18 01:57:04;;;;;;;;;1.80;1.00;;;;;6.74;89.13;101909.22;5110120;28;8836;-65
2022/01/18 01:59:31;;;;;;;;;3.40;3.40;;;;;6.73;89.01;101915.41;5128090;27;8852;-63
2022/01/18 02:01:59;;;;;;;;;3.80;3.80;;;;;6.74;88.90;101918.00;5131221;27;8830;-62
2022/01/18 02:04:27;;;;;;;;;0.20;0.00;;;;;6.76;89.04;101925.91;5131150;27;9462;-63
2022/01/18 02:06:54;;;;;;;;;0.80;0.80;;;;;6.75;89.20;101927.66;5131055;27;8955;-65
2022/01/18 02:09:22;;;;;;;;;0.40;0.40;;;;;6.75;89.51;101916.25;5112968;27;8913;-64
2022/01/18 02:11:51;;;;;;;;;1.00;0.40;;;;;6.73;89.00;101908.34;5110152;28;8840;-61
2022/01/18 02:14:22;;;;;;;;;1.00;1.00;;;;;6.72;88.92;101909.25;5110040;28;8869;-62
2022/01/18 02:22:20;;;;;;;;;1.00;1.00;;;;;6.73;88.90;101915.41;5131037;27;8849;-63
2022/01/18 02:24:48;;;;;;;;;3.80;3.00;;;;;6.72;88.73;101908.38;5129454;27;8834;-64
2022/01/18 02:27:16;;;;;;;;;4.00;3.00;;;;;6.72;88.65;101903.06;5129428;27;8846;-62
2022/01/18 02:29:43;;;;;;;;;2.60;2.20;;;;;6.72;89.08;101903.06;5130182;27;8826;-64
2022/01/18 02:32:11;;;;;;;;;1.00;0.40;;;;;6.71;89.08;101898.72;5129294;27;8851;-64
2022/01/18 02:34:39;;;;;;;;;4.40;3.20;;;;;6.71;89.15;101896.94;5128880;27;8838;-62
2022/01/18 02:37:07;;;;;;;;;3.00;3.00;;;;;6.72;88.85;101895.13;5121491;27;8828;-65
2022/01/18 02:39:35;;;;;;;;;1.00;1.00;;;;;6.71;89.29;101896.94;5107439;28;8870;-65
2022/01/18 02:42:02;;;;;;;;;3.20;3.20;;;;;6.71;88.94;101896.94;5107872;28;8851;-63
2022/01/18 02:44:31;;;;;;;;;1.80;1.80;;;;;6.71;89.29;101906.66;5109539;28;8876;-65
2022/01/18 02:46:58;;;;;;;;;0.80;0.80;;;;;6.71;88.97;101896.06;5115928;27;8838;-65
2022/01/18 02:49:26;;;;;;;;;5.20;4.00;;;;;6.71;88.98;101901.34;5129563;27;8909;-63
2022/01/18 02:51:53;;;;;;;;;0.00;0.00;;;;;6.71;89.12;101893.41;5128941;27;9519;-63
2022/01/18 02:54:21;;;;;;;;;4.40;3.00;;;;;6.71;88.53;101894.28;5128160;27;8841;-63
2022/01/18 02:56:53;;;;;;;;;1.80;1.00;;;;;6.71;89.23;101896.06;5124067;27;8846;-63
2022/01/18 02:59:23;;;;;;;;;1.00;1.00;;;;;6.70;88.84;101900.50;5107672;28;8858;-66
2022/01/18 03:04:38;;;;;;;;;5.60;3.80;;;;;6.69;89.19;101893.44;5107058;28;8875;-63
2022/01/18 03:07:06;;;;;;;;;4.40;2.20;;;;;6.69;88.92;101897.91;5112644;27;9574;-63
2022/01/18 03:09:33;;;;;;;;;3.00;1.00;;;;;6.69;88.76;101903.19;5128918;27;8841;-66
2022/01/18 03:12:01;;;;;;;;;3.20;3.00;;;;;6.69;88.80;101897.91;5129463;27;8838;-64
2022/01/18 03:14:29;;;;;;;;;3.00;1.40;;;;;6.68;89.12;101896.16;5129520;27;8906;-63
2022/01/18 03:16:57;;;;;;;;;3.00;1.40;;;;;6.67;88.90;101897.94;5123176;27;8864;-65
2022/01/18 03:19:24;;;;;;;;;1.00;1.00;;;;;6.67;88.89;101900.59;5108829;28;8876;-65
2022/01/18 03:21:56;;;;;;;;;3.60;3.00;;;;;6.67;88.89;101899.75;5107356;28;8848;-65
2022/01/18 03:24:45;;;;;;;;;2.20;2.20;;;;;6.67;89.06;101899.75;5108125;28;9006;-64
2022/01/18 03:29:59;;;;;;;;;5.20;3.60;;;;;6.61;89.12;101905.22;5129321;27;8826;-64
2022/01/18 03:32:27;;;;;;;;;6.80;5.80;;;;;6.59;89.19;101915.00;5128400;27;9034;-63
2022/01/18 03:34:55;;;;;;;;;4.40;4.00;;;;;6.58;89.08;101913.25;5111179;27;9487;-64
2022/01/18 03:37:23;;;;;;;;;6.00;4.00;;;;;6.59;89.37;101907.06;5107887;28;8836;-65
2022/01/18 03:39:50;;;;;;;;;4.80;4.00;;;;;6.60;89.38;101914.94;5108099;28;8882;-62
2022/01/18 03:45:06;;;;;;;;;1.40;1.40;;;;;6.63;89.21;101908.69;5104676;28;8936;-63
2022/01/18 03:47:33;;;;;;;;;6.60;6.00;;;;;6.65;89.44;101913.00;5107197;28;8844;-63
2022/01/18 03:50:01;;;;;;;;;4.00;2.60;;;;;6.66;89.28;101908.59;5106522;28;8844;-63
2022/01/18 03:52:29;;;;;;;;;4.00;4.00;;;;;6.67;89.06;101905.03;5108105;28;8848;-69
2022/01/18 03:54:57;;;;;;;;;5.00;4.40;;;;;6.66;89.05;101901.50;5122608;27;8838;-63
2022/01/18 03:57:25;;;;;;;;;6.80;6.20;;;;;6.63;88.98;101906.03;5126704;27;8960;-62
2022/01/18 03:59:53;;;;;;;;;5.60;4.00;;;;;6.60;89.13;101904.34;5127719;27;8846;-63
2022/01/18 04:02:20;;;;;;;;;6.20;4.00;;;;;6.58;89.40;101913.25;5131061;27;8975;-65
2022/01/18 04:04:48;;;;;;;;;0.80;0.00;;;;;6.58;89.18;101913.25;5116064;27;8828;-64
2022/01/18 04:07:16;;;;;;;;;0.00;0.00;;;;;6.56;89.49;101901.84;5112045;28;8835;-65
2022/01/18 04:09:44;;;;;;;;;10.40;8.20;;;;;6.55;89.50;101908.06;5109897;28;8851;-65
2022/01/18 04:12:12;;;;;;;;;5.40;3.80;;;;;6.56;89.26;101915.97;5111566;28;8867;-63
2022/01/18 04:14:40;;;;;;;;;4.00;3.40;;;;;6.56;89.41;101915.06;5124624;27;8833;-62
2022/01/18 04:17:15;;;;;;;;;3.60;3.00;;;;;6.57;89.31;101922.09;5130288;27;8857;-64
2022/01/18 04:28:15;;;;;;;;;8.40;7.40;;;;;6.60;89.26;101924.66;5119436;27;8885;-64
2022/01/18 04:30:43;;;;;;;;;1.40;1.40;;;;;6.62;89.42;101920.19;5131450;27;8845;-66
2022/01/18 04:33:10;;;;;;;;;5.80;4.80;;;;;6.61;89.10;101921.94;5131423;27;8934;-65
2022/01/18 04:35:38;;;;;;;;;9.00;4.00;;;;;6.60;89.35;101920.22;5131601;27;8938;-65
2022/01/18 04:38:06;;;;;;;;;4.00;3.00;;;;;6.62;89.55;101929.00;5123067;27;8828;-64
2022/01/18 04:40:36;;;;;;;;;9.00;6.00;;;;;6.64;89.30;101921.00;5110780;28;8860;-65
2022/01/18 04:43:11;;;;;;;;;3.40;3.40;;;;;6.65;89.27;101913.00;5111417;28;8852;-65
2022/01/18 04:48:27;;;;;;;;;6.00;4.40;;;;;6.70;89.18;101915.50;5120933;27;9564;-65
2022/01/18 04:50:55;;;;;;;;;9.00;7.40;;;;;6.71;89.32;101911.94;5131102;27;8984;-65
2022/01/18 04:53:23;;;;;;;;;10.60;8.20;;;;;6.71;89.14;101912.81;5132118;27;8838;-64
2022/01/18 04:55:55;;;;;;;;;4.40;3.20;;;;;6.71;89.53;101918.13;5131381;27;8834;-63
2022/01/18 04:58:22;;;;;;;;;3.80;3.80;;;;;6.70;88.56;101926.09;5120572;27;8835;-65
2022/01/18 05:00:50;;;;;;;;;4.40;4.00;;;;;6.71;89.17;101926.06;5110127;28;8848;-62
2022/01/18 05:03:18;;;;;;;;;3.80;3.60;;;;;6.70;89.02;101926.09;5110473;28;8944;-65
2022/01/18 05:05:48;;;;;;;;;5.20;4.00;;;;;6.70;88.94;101924.31;5123828;27;8945;-66
2022/01/18 05:08:16;;;;;;;;;4.40;3.40;;;;;6.71;89.35;101938.41;5129760;27;8837;-64
2022/01/18 05:10:50;;;;;;;;;4.60;3.00;;;;;6.71;88.84;101933.13;5129405;27;8830;-65
2022/01/18 05:13:33;;;;;;;;;2.60;2.60;;;;;6.71;89.09;101939.28;5131474;27;8861;-64
2022/01/18 05:16:19;;;;;;;;;6.20;4.40;;;;;6.71;89.09;101943.72;5114353;27;8862;-64
2022/01/18 05:19:06;;;;;;;;;3.80;3.00;;;;;6.73;89.17;101952.47;5109778;28;8874;-64
2022/01/18 05:22:55;;;;;;;;;4.80;4.80;;;;;6.73;89.08;101953.34;5110254;28;8850;-64
2022/01/18 05:24:22;;;;;;;;;10.40;4.00;;;;;6.73;88.90;101949.81;5111209;27;8853;-64
2022/01/18 05:26:50;;;;;;;;;4.80;4.80;;;;;6.74;89.12;101954.22;5130389;27;8845;-65
2022/01/18 05:29:17;;;;;;;;;11.20;8.00;;;;;6.73;89.19;101958.63;5130524;27;8834;-63
2022/01/18 05:31:45;;;;;;;;;7.00;6.20;;;;;6.73;89.27;101948.03;5130349;27;8844;-64
2022/01/18 05:34:13;;;;;;;;;3.60;3.00;;;;;6.74;89.00;101956.88;5129359;27;8833;-64
2022/01/18 05:36:41;;;;;;;;;1.80;1.80;;;;;6.74;89.00;101952.41;5129858;27;8922;-65
2022/01/18 05:39:09;;;;;;;;;4.80;4.00;;;;;6.74;89.26;101954.22;5129400;27;9914;-65
2022/01/18 05:41:37;;;;;;;;;4.40;4.00;;;;;6.72;89.32;101951.59;5130604;27;9542;-65
2022/01/18 05:44:05;;;;;;;;;6.60;6.60;;;;;6.73;89.18;101949.81;5128615;27;8853;-65
2022/01/18 05:46:34;;;;;;;;;5.00;4.00;;;;;6.73;89.26;101939.22;5128706;27;8838;-65
2022/01/18 05:49:02;;;;;;;;;3.80;2.20;;;;;6.73;89.19;101947.16;5128662;27;8984;-64
2022/01/18 05:51:31;;;;;;;;;4.40;4.00;;;;;6.72;89.24;101953.38;5123822;27;8956;-64
2022/01/18 05:53:58;;;;;;;;;7.20;6.20;;;;;6.73;89.24;101955.09;5108058;28;8970;-65
2022/01/18 05:56:29;;;;;;;;;7.20;7.20;;;;;6.71;88.97;101947.25;5107778;28;9512;-65
2022/01/18 05:59:01;;;;;;;;;7.00;7.00;;;;;6.71;89.43;101949.00;5106760;28;8862;-64
2022/01/18 06:01:33;;;;;;;;;9.80;7.00;;;;;6.70;89.17;101944.63;5109554;27;8885;-65
2022/01/18 06:06:53;;;;;;;;;4.00;4.00;;;;;6.68;89.20;101951.75;5066845;27;10143;-62
2022/01/18 06:09:21;;;;;;;;;8.80;8.80;;;;;6.69;89.22;101953.50;5116392;27;8862;-64
2022/01/18 06:11:49;;;;;;;;;8.20;7.80;;;;;6.67;89.17;101950.88;5122873;27;8837;-63
2022/01/18 06:14:17;;;;;;;;;6.40;6.00;;;;;6.69;89.37;101964.06;5126559;27;8864;-65
2022/01/18 06:16:44;;;;;;;;;9.60;9.00;;;;;6.68;89.42;101963.19;5123866;27;8876;-65
2022/01/18 06:19:13;;;;;;;;;5.40;4.80;;;;;6.69;89.45;101958.78;5122395;27;9510;-65
2022/01/18 06:21:41;;;;;;;;;9.20;8.20;;;;;6.69;89.18;101961.44;5120680;27;8853;-64
2022/01/18 06:24:09;;;;;;;;;3.20;1.40;;;;;6.70;89.12;101963.16;5121525;27;8866;-63
2022/01/18 06:26:57;;;;;;;;;10.40;9.20;;;;;6.71;89.19;101975.47;5118925;27;8869;-64
2022/01/18 06:29:25;;;;;;;;;9.00;7.80;;;;;6.69;89.05;101964.91;5118240;27;8854;-64
2022/01/18 06:31:53;;;;;;;;;7.40;7.00;;;;;6.69;89.29;101970.22;5112543;27;9385;-64
2022/01/18 06:34:20;;;;;;;;;2.60;2.60;;;;;6.68;89.46;101968.50;5118192;27;8826;-64
2022/01/18 06:36:48;;;;;;;;;9.00;9.00;;;;;6.69;89.32;101972.88;5116511;27;8833;-63
2022/01/18 06:39:17;;;;;;;;;6.00;6.00;;;;;6.69;89.23;101977.31;5114419;27;8853;-64
2022/01/18 06:41:44;;;;;;;;;5.20;4.80;;;;;6.70;89.38;101973.75;5114210;27;8865;-63
2022/01/18 06:44:12;;;;;;;;;4.80;3.00;;;;;6.68;88.86;101976.44;5112791;27;8841;-63
2022/01/18 06:46:40;;;;;;;;;8.60;7.80;;;;;6.70;89.48;101979.03;5113788;27;9506;-63
2022/01/18 06:49:08;;;;;;;;;4.00;1.40;;;;;6.70;89.36;101987.88;5110538;27;8869;-62
2022/01/18 06:51:37;;;;;;;;;12.40;9.00;;;;;6.71;89.25;101986.06;5110283;27;8968;-64
2022/01/18 06:54:05;;;;;;;;;1.80;1.80;;;;;6.71;89.17;101983.41;5111356;27;8922;-62
2022/01/18 06:56:33;;;;;;;;;6.20;4.40;;;;;6.71;89.34;101989.59;5110832;27;8880;-62
2022/01/18 06:59:00;;;;;;;;;10.00;9.40;;;;;6.72;89.11;101988.66;5108276;27;8867;-63
2022/01/18 07:01:28;;;;;;;;;8.20;6.80;;;;;6.74;89.39;101991.28;5112044;27;8857;-64
2022/01/18 07:03:56;;;;;;;;;11.60;10.20;;;;;6.74;89.41;101993.94;5109657;27;8845;-62
2022/01/18 07:06:24;;;;;;;;;9.40;8.20;;;;;6.75;88.92;101990.38;5108620;27;8845;-64
2022/01/18 07:08:52;;;;;;;;;7.40;7.40;;;;;6.76;89.25;101998.22;5111834;27;8842;-64
2022/01/18 07:11:20;;;;;;;;;5.60;4.80;;;;;6.76;89.38;102000.88;5111409;27;9012;-62
2022/01/18 07:13:47;;;;;;;;;5.20;5.20;;;;;6.77;89.72;102007.94;5111449;27;8849;-62
2022/01/18 07:16:16;;;;;;;;;7.20;7.20;;;;;6.78;89.45;102000.84;5114034;27;8929;-63
2022/01/18 07:18:44;;;;;;;;;8.80;6.00;;;;;6.79;89.43;102010.50;5112866;27;8885;-62
2022/01/18 07:21:11;;;;;;;;;9.20;7.80;;;;;6.79;89.25;102008.75;5111104;27;8862;-64
2022/01/18 07:23:39;;;;;;;;;5.60;5.60;;;;;6.78;89.35;102007.03;5112654;27;9399;-64
2022/01/18 07:26:10;;;;;;;;;4.40;4.40;;;;;6.78;89.56;102009.66;5111687;27;8884;-63
2022/01/18 07:28:37;;;;;;;;;6.80;6.60;;;;;6.79;89.23;102007.88;5110717;27;8853;-62
2022/01/18 07:31:05;;;;;;;;;8.20;6.80;;;;;6.79;89.30;102011.41;5116085;27;8845;-62
2022/01/18 07:33:36;;;;;;;;;9.00;7.40;;;;;6.79;89.57;102010.50;5111903;27;8934;-62
2022/01/18 07:36:03;;;;;;;;;5.60;4.00;;;;;6.79;89.18;102011.41;5110343;27;9188;-63
2022/01/18 07:38:31;;;;;;;;;1.40;1.40;;;;;6.80;89.34;102017.53;5111648;27;8866;-64
2022/01/18 07:40:59;;;;;;;;;9.40;6.20;;;;;6.80;89.18;102013.13;5111308;27;8864;-65
2022/01/18 07:43:27;;;;;;;;;4.80;4.80;;;;;6.81;89.30;102019.31;5112586;27;8837;-62
2022/01/18 07:45:56;;;;;;;;;9.60;9.20;;;;;6.81;89.15;102009.56;5114450;27;8846;-64
2022/01/18 07:48:23;;;;;;;;;7.00;7.00;;;;;6.81;89.23;102011.34;5112316;27;8865;-64
2022/01/18 07:50:52;;;;;;;;;3.80;3.00;;;;;6.82;89.33;102013.09;5114653;27;8834;-64
2022/01/18 07:53:20;;;;;;;;;6.40;6.20;;;;;6.81;88.98;102020.16;5112496;27;8854;-64
2022/01/18 07:55:48;;;;;;;;;7.00;6.60;;;;;6.81;89.39;102014.00;5112113;27;8846;-63
2022/01/18 07:58:15;;;;;;;;;7.00;5.20;;;;;6.83;89.09;102014.81;5111908;27;8864;-64
2022/01/18 08:00:43;;;;;;;;;5.60;5.60;;;;;6.85;88.95;102018.28;5109308;27;8869;-61
2022/01/18 08:03:12;;;;;;;;;5.40;5.40;;;;;6.82;89.19;102003.34;5110722;27;9110;-62
2022/01/18 08:05:39;;;;;;;;;12.60;10.60;;;;;6.85;89.03;102020.91;5110638;27;9302;-65
2022/01/18 08:08:09;;;;;;;;;6.40;6.00;;;;;6.85;88.93;102026.22;5110825;27;9098;-62
2022/01/18 08:10:37;;;;;;;;;8.40;6.40;;;;;6.86;88.62;102022.66;5112893;27;8873;-64
2022/01/18 08:13:04;;;;;;;;;10.20;9.80;;;;;6.86;89.23;102017.34;5112113;27;8829;-64
2022/01/18 08:15:37;;;;;;;;;13.80;10.00;;;;;6.87;88.85;102019.97;5111400;27;8908;-64
2022/01/18 08:18:07;;;;;;;;;5.20;4.00;;;;;6.88;89.13;102027.00;5112521;27;9440;-63
2022/01/18 08:20:35;;;;;;;;;7.40;5.60;;;;;6.89;88.86;102027.88;5112887;27;8846;-64
2022/01/18 08:23:04;;;;;;;;;8.60;7.00;;;;;6.88;89.28;102027.00;5111848;27;8849;-63
2022/01/18 08:25:34;;;;;;;;;9.60;7.00;;;;;6.91;88.94;102020.72;5112384;27;9129;-64
2022/01/18 08:28:02;;;;;;;;;4.40;4.40;;;;;6.93;89.08;102024.19;5111615;27;8846;-64
2022/01/18 08:30:30;;;;;;;;;10.40;7.80;;;;;6.94;89.46;102023.28;5107379;27;8857;-65
2022/01/18 08:32:57;;;;;;;;;6.40;6.40;;;;;6.96;89.34;102029.41;5106884;27;8884;-63
2022/01/18 08:35:26;;;;;;;;;7.80;6.60;;;;;6.97;89.00;102031.16;5107533;27;9168;-62
2022/01/18 08:37:54;;;;;;;;;4.40;4.00;;;;;7.01;88.87;102027.47;5108320;27;9541;-64
2022/01/18 08:40:21;;;;;;;;;12.20;10.00;;;;;7.03;88.85;102028.28;5109478;27;8862;-62
2022/01/18 08:42:49;;;;;;;;;4.80;4.00;;;;;7.06;88.98;102026.41;5111633;27;8869;-64
2022/01/18 08:45:17;;;;;;;;;9.60;8.20;;;;;7.10;88.70;102029.81;5109336;27;8861;-62
2022/01/18 08:47:47;;;;;;;;;12.00;7.80;;;;;7.13;88.68;102035.03;5113246;27;8865;-63
2022/01/18 08:50:17;;;;;;;;;7.00;6.20;;;;;7.17;88.65;102034.00;5112561;27;8854;-63
2022/01/18 08:52:50;;;;;;;;;13.40;9.60;;;;;7.20;88.73;102039.22;5115873;27;8845;-63
2022/01/18 08:55:18;;;;;;;;;5.20;5.20;;;;;7.24;88.69;102033.78;5113448;27;8906;-64
2022/01/18 08:57:47;;;;;;;;;10.20;10.00;;;;;7.29;88.66;102034.47;5114417;27;8838;-62
2022/01/18 09:00:15;;;;;;;;;9.80;9.20;;;;;7.36;88.47;102035.16;5114661;27;9154;-62
2022/01/18 09:02:43;;;;;;;;;7.50;6.25;;;;;7.41;88.54;102043.78;5113433;27;8857;-62
2022/01/18 09:05:11;;;;;;;;;11.20;8.60;;;;;7.44;88.32;102033.97;5111285;27;9486;-65
2022/01/18 09:07:39;;;;;;;;;11.20;9.20;;;;;7.47;88.37;102039.19;5110402;27;8876;-64
2022/01/18 09:10:09;;;;;;;;;8.20;7.00;;;;;7.48;88.51;102050.63;5111910;27;9153;-64
2022/01/18 09:12:37;;;;;;;;;7.60;6.80;;;;;7.49;88.14;102041.78;5113397;27;8849;-63
2022/01/18 09:15:05;;;;;;;;;10.80;10.80;;;;;7.51;88.20;102043.44;5111774;27;9498;-63
2022/01/18 09:17:33;;;;;;;;;7.00;6.50;;;;;7.55;88.16;102057.47;5112478;27;9502;-64
2022/01/18 09:20:06;;;;;;;;;9.00;8.20;;;;;7.57;88.28;102053.84;5114502;27;10007;-63
2022/01/18 09:22:35;;;;;;;;;8.25;7.25;;;;;7.62;88.50;102059.88;5114813;27;8853;-64
2022/01/18 09:25:02;;;;;;;;;10.40;9.20;;;;;7.67;87.86;102059.72;5111227;27;8926;-64
2022/01/18 09:27:30;;;;;;;;;12.20;10.40;;;;;7.69;88.03;102064.91;5113726;27;8854;-63
2022/01/18 09:30:00;;;;;;;;;10.00;9.60;;;;;7.72;88.41;102062.16;5113372;27;8902;-64
2022/01/18 09:32:28;;;;;;;;;12.00;11.00;;;;;7.73;87.73;102068.31;5114210;27;8837;-64
2022/01/18 09:34:55;;;;;;;;;7.80;7.40;;;;;7.73;87.53;102063.88;5112744;27;8853;-63
2022/01/18 09:37:23;;;;;;;;;10.00;8.00;;;;;7.75;87.68;102063.84;5110600;27;8845;-65
2022/01/18 09:39:52;;;;;;;;;10.60;8.00;;;;;7.75;88.06;102064.69;5111927;27;8851;-63
2022/01/18 09:42:20;;;;;;;;;10.40;9.20;;;;;7.78;87.43;102066.38;5112408;27;8891;-62
2022/01/18 09:44:48;;;;;;;;;9.00;8.60;;;;;7.77;88.10;102062.84;5115479;27;8872;-64
2022/01/18 09:47:16;;;;;;;;;10.00;9.80;;;;;7.76;87.73;102071.72;5113435;27;9087;-63
2022/01/18 09:49:44;;;;;;;;;7.80;7.60;;;;;7.75;87.84;102067.34;5112493;27;8834;-64
2022/01/18 09:52:11;;;;;;;;;7.00;6.40;;;;;7.76;87.83;102078.84;5111409;27;8849;-63
2022/01/18 09:54:39;;;;;;;;;7.60;6.60;;;;;7.76;87.90;102079.69;5115277;27;8846;-63
2022/01/18 09:57:07;;;;;;;;;9.25;6.25;;;;;7.79;88.07;102081.38;5113925;27;8870;-65
2022/01/18 09:59:34;;;;;;;;;13.80;11.20;;;;;7.79;88.22;102082.25;5111054;27;8829;-63
2022/01/18 10:02:06;;;;;;;;;9.80;8.60;;;;;7.80;88.26;102077.78;5113587;27;8869;-64
2022/01/18 10:04:35;;;;;;;;;10.50;8.75;;;;;7.80;87.76;102081.31;5110619;27;10022;-62
2022/01/18 10:07:03;;;;;;;;;7.00;7.00;;;;;7.83;87.69;102086.50;5111166;27;8845;-64
2022/01/18 10:09:31;;;;;;;;;9.40;9.40;;;;;7.86;87.80;102085.53;5112367;27;9146;-65
2022/01/18 10:11:58;;;;;;;;;12.00;10.00;;;;;7.88;88.24;102079.28;5114361;27;9567;-62
2022/01/18 10:14:26;;;;;;;;;6.50;5.50;;;;;7.91;87.59;102081.81;5109034;27;9254;-64
2022/01/18 10:16:54;;;;;;;;;6.50;6.00;;;;;7.96;87.98;102079.00;5109699;27;9247;-64
2022/01/18 10:19:22;;;;;;;;;12.50;8.75;;;;;8.00;87.83;102078.81;5112123;27;9186;-64
2022/01/18 10:21:51;;;;;;;;;5.00;4.50;;;;;8.04;87.80;102075.16;5112745;27;8857;-65
2022/01/18 10:24:21;;;;;;;;;7.50;7.00;;;;;8.08;87.69;102081.22;5111989;27;9172;-64
2022/01/18 10:26:48;;;;;;;;;4.00;4.00;;;;;8.14;87.60;102091.63;5112093;27;9170;-62
2022/01/18 10:29:16;;;;;;;;;15.00;10.25;;;;;8.17;87.67;102080.91;5111686;27;9498;-64
2022/01/18 10:31:54;;;;;;;;;10.00;9.00;;;;;8.19;87.51;102077.31;5111008;27;8834;-64
2022/01/18 10:34:26;;;;;;;;;5.80;5.80;;;;;8.21;86.78;102072.81;5109437;27;9274;-63
2022/01/18 10:36:54;;;;;;;;;6.60;6.60;;;;;8.23;87.17;102076.28;5112380;27;8834;-62
2022/01/18 10:39:22;;;;;;;;;8.75;8.25;;;;;8.25;87.43;102065.59;5108915;27;8870;-64
2022/01/18 10:41:50;;;;;;;;;11.50;9.25;;;;;8.27;87.18;102061.97;5112334;27;8873;-65
2022/01/18 10:44:18;;;;;;;;;12.50;10.00;;;;;8.30;87.23;102051.22;5111902;27;8922;-63
2022/01/18 10:46:47;;;;;;;;;3.50;3.00;;;;;8.36;87.09;102051.00;5111494;27;9093;-62
2022/01/18 10:49:14;;;;;;;;;11.25;10.50;;;;;8.40;87.05;102049.13;5112494;27;8849;-63
2022/01/18 10:51:43;;;;;;;;;7.50;6.50;;;;;8.47;87.39;102054.16;5111102;27;9502;-63
2022/01/18 10:54:11;;;;;;;;;9.50;9.50;;;;;8.55;86.93;102044.13;5109962;27;8942;-61
2022/01/18 10:56:38;;;;;;;;;7.50;6.50;;;;;8.65;87.13;102040.16;5113552;27;8914;-62
2022/01/18 10:59:06;;;;;;;;;10.75;9.25;;;;;8.78;86.48;102036.13;5108147;27;8996;-64
2022/01/18 11:01:34;;;;;;;;;7.00;7.00;;;;;8.88;86.29;102033.97;5111899;27;9169;-64
2022/01/18 11:04:02;;;;;;;;;4.00;3.00;;;;;9.01;86.13;102036.09;5092847;27;9207;-64
2022/01/18 11:06:30;;;;;;;;;6.75;6.00;;;;;9.22;86.12;102034.34;5107274;27;9113;-64
2022/01/18 11:08:58;;;;;;;;;6.75;6.25;;;;;9.46;85.69;102025.38;5107094;27;9257;-62
2022/01/18 11:11:25;;;;;;;;;9.50;9.50;;;;;9.66;85.04;102033.38;5108260;27;8867;-64
2022/01/18 11:13:55;;;;;;;;;7.00;7.00;;;;;9.76;84.47;102035.59;5108813;27;8921;-62
2022/01/18 11:16:26;;;;;;;;;7.00;5.50;;;;;9.78;84.51;102035.53;5110081;27;8861;-64
2022/01/18 11:18:54;;;;;;;;;8.00;7.50;;;;;9.70;84.91;102027.84;5110792;27;9393;-63
2022/01/18 11:21:24;;;;;;;;;6.00;6.00;;;;;9.61;84.81;102030.91;5114504;27;9153;-63
2022/01/18 11:23:52;;;;;;;;;9.75;6.75;;;;;9.53;85.49;102033.03;5111558;27;9318;-62
2022/01/18 11:26:21;;;;;;;;;9.25;7.50;;;;;9.48;84.98;102021.72;5112850;27;8871;-63
2022/01/18 11:28:55;;;;;;;;;6.75;5.00;;;;;9.46;85.56;102022.69;5111781;27;8853;-62
2022/01/18 11:31:23;;;;;;;;;11.00;9.00;;;;;9.46;85.68;102028.91;5110233;27;8837;-64
2022/01/18 11:33:51;;;;;;;;;7.50;7.00;;;;;9.45;85.30;102020.97;5110507;27;8837;-64
2022/01/18 11:36:19;;;;;;;;;11.00;9.50;;;;;9.44;85.74;102017.47;5111201;27;9539;-63
2022/01/18 11:38:48;;;;;;;;;0.25;0.00;;;;;9.42;85.41;102016.66;5119307;27;8837;-64
2022/01/18 11:41:16;;;;;;;;;11.50;10.50;;;;;9.43;85.50;102007.72;5122839;27;8871;-62
2022/01/18 11:43:44;;;;;;;;;7.00;6.50;;;;;9.46;85.70;102007.63;5119725;27;8857;-64
2022/01/18 11:46:12;;;;;;;;;10.75;10.00;;;;;9.51;85.35;102004.78;5118748;27;8861;-62
2022/01/18 11:48:40;;;;;;;;;4.00;3.50;;;;;9.57;85.28;102002.69;5117944;27;8865;-64
2022/01/18 11:51:15;;;;;;;;;7.00;6.75;;;;;9.61;85.51;102003.44;5117157;27;8849;-63
2022/01/18 11:53:44;;;;;;;;;5.50;5.00;;;;;9.63;84.96;101999.78;5116638;27;8870;-64
2022/01/18 11:56:11;;;;;;;;;9.25;5.25;;;;;9.69;85.40;101996.00;5115597;27;8860;-62
2022/01/18 11:58:39;;;;;;;;;9.00;7.00;;;;;9.79;84.81;101989.38;5117559;27;8855;-64
2022/01/18 12:01:08;;;;;;;;;10.25;6.75;;;;;9.92;85.38;101983.44;5116236;27;8992;-64
2022/01/18 12:03:36;;;;;;;;;8.50;7.75;;;;;10.05;84.76;101983.78;5116731;27;9099;-64
2022/01/18 12:06:04;;;;;;;;;4.00;4.00;;;;;10.13;84.77;101979.84;5115792;27;9145;-63
2022/01/18 12:08:31;;;;;;;;;8.00;8.00;;;;;10.14;83.73;101983.34;5117357;27;8841;-64
2022/01/18 12:10:59;;;;;;;;;4.50;3.50;;;;;10.13;84.13;101984.28;5118636;27;8883;-63
2022/01/18 12:13:27;;;;;;;;;5.50;5.50;;;;;10.13;84.31;101979.84;5119080;27;8901;-64
2022/01/18 12:15:56;;;;;;;;;7.50;7.00;;;;;10.26;83.88;101981.00;5120740;27;8857;-64
2022/01/18 12:18:24;;;;;;;;;9.25;8.00;;;;;10.36;83.92;101982.31;5118011;27;9302;-62
2022/01/18 12:20:52;;;;;;;;;3.75;3.00;;;;;10.42;83.59;101982.03;5119222;27;8845;-64
2022/01/18 12:23:21;;;;;;;;;7.00;6.00;;;;;10.41;84.07;101976.78;5123719;27;8845;-62
2022/01/18 12:25:55;;;;;;;;;5.50;3.50;;;;;10.38;84.34;101980.44;5124495;27;8868;-64
2022/01/18 12:28:31;;;;;;;;;6.25;6.25;;;;;10.30;84.31;101981.72;5122299;27;8841;-64
2022/01/18 12:31:06;;;;;;;;;6.50;6.00;;;;;10.26;84.34;101982.81;5121931;27;8849;-63
2022/01/18 12:33:34;;;;;;;;;1.50;1.50;;;;;10.16;84.59;101984.16;5123098;27;8972;-62
2022/01/18 12:36:02;;;;;;;;;2.00;1.00;;;;;10.06;84.55;101983.72;5123210;27;8885;-63
2022/01/18 12:38:30;;;;;;;;;6.00;6.00;;;;;9.93;84.06;101976.31;5124259;27;8830;-63